Weather History for Gadsden, AL

Change the Weather History Date:

Sunday, January 20, 2013

  Actual Average Record
Temperature  
Mean Temperature 43 °F -  
Max Temperature 60 °F 49 °F 74 °F (1937)
Min Temperature 26 °F 29 °F 6 °F (1940)
Degree Days  
Heating Degree Days 22    
Moisture  
Dew Point 32 °F    
Average Humidity 75    
Maximum Humidity 93    
Minimum Humidity 39    
Precipitation  
Precipitation 0.00 in - - ()
Sea Level Pressure  
Sea Level Pressure 30.19 in    
Wind  
Wind Speed 1 mph (NW)    
Max Wind Speed 6 mph    
Max Gust Speed -    
Visibility 10 miles    
Events      
Averages and records for this station are not official NWS values.
T = Trace of Precipitation, MM = Missing Value Source: NWS Daily Summary

Daily Weather History Graph

Daily Weather History Graph

Search for Another Location

Airport:

Trip Planner

Search our weather history database for the weather conditions in past years. The results will help you decide how hot, cold, wet, or windy it might be!

Date:

Astronomy

Jan. 20, 2013 Rise Set
Actual Time 6:47 AM CST 5:03 PM CST
Civil Twilight 6:21 AM CST 5:30 PM CST
Nautical Twilight 5:50 AM CST 6:00 PM CST
Astronomical Twilight 5:20 AM CST 6:30 PM CST
Moon 12:03 PM CST (1/20) 1:21 AM CST (1/20)
Length of Visible Light 11h 09m
Length of Day
10h 15m
Waxing Gibbous, 66% of the Moon is Illuminated
Jan 20
Waxing Gibbous
Jan 26
Full
Feb 3
Last Quarter
Feb 10
New
Feb 17
First Quarter

Hourly Weather History & Observations

Time (CST) Temp. Windchill Dew Point Humidity Pressure Visibility Wind Dir Wind Speed Gust Speed Precip Events Conditions
12:15 AM 30.2 °F - 28.4 °F 93% 30.23 in 10.0 mi Calm Calm - N/A   Clear
12:35 AM 30.2 °F - 28.4 °F 93% 30.23 in 10.0 mi Calm Calm - N/A   Clear
12:55 AM 28.4 °F 24.6 °F 26.6 °F 93% 30.23 in 10.0 mi West 3.5 mph - N/A   Clear
1:15 AM 30.2 °F - 26.6 °F 86% 30.23 in 10.0 mi Calm Calm - N/A   Clear
1:35 AM 30.2 °F - 26.6 °F 86% 30.23 in 10.0 mi Calm Calm - N/A   Clear
1:55 AM 28.4 °F - 26.6 °F 93% 30.23 in 10.0 mi Calm Calm - N/A   Clear
2:15 AM 28.4 °F - 26.6 °F 93% 30.23 in 10.0 mi Calm Calm - N/A   Clear
2:35 AM 28.4 °F - 26.6 °F 93% 30.23 in 10.0 mi Calm Calm - N/A   Clear
2:55 AM 28.4 °F - 26.6 °F 93% 30.23 in 10.0 mi Calm Calm - N/A   Clear
3:15 AM 28.4 °F - 26.6 °F 93% 30.23 in 10.0 mi Calm Calm - N/A   Clear
3:35 AM 28.4 °F - 26.6 °F 93% 30.23 in 10.0 mi Calm Calm - N/A   Clear
3:55 AM 28.4 °F - 26.6 °F 93% 30.23 in 10.0 mi Calm Calm - N/A   Clear
4:15 AM 28.4 °F - 26.6 °F 93% 30.23 in 10.0 mi Calm Calm - N/A   Clear
4:35 AM 28.4 °F - 26.6 °F 93% 30.23 in 10.0 mi Calm Calm - N/A   Clear
4:55 AM 28.4 °F - 26.6 °F 93% 30.23 in 10.0 mi Calm Calm - N/A   Clear
5:15 AM 28.4 °F - 26.6 °F 93% 30.23 in 10.0 mi Calm Calm - N/A   Clear
5:35 AM 28.4 °F - 26.6 °F 93% 30.23 in 10.0 mi Calm Calm - N/A   Clear
6:15 AM 26.6 °F - 24.8 °F 93% 30.23 in 10.0 mi Calm Calm - N/A   Clear
6:35 AM 26.6 °F - 24.8 °F 93% 30.23 in 10.0 mi Calm Calm - N/A   Clear
6:55 AM 28.4 °F - 26.6 °F 93% 30.23 in 10.0 mi Calm Calm - N/A   Clear
7:15 AM 28.4 °F - 24.8 °F 86% 30.23 in 10.0 mi Calm Calm - N/A   Clear
7:35 AM 28.4 °F - 26.6 °F 93% 30.24 in 10.0 mi Calm Calm - N/A   Clear
7:55 AM 30.2 °F - 28.4 °F 93% 30.24 in 10.0 mi Calm Calm - N/A   Clear
8:15 AM 33.8 °F - 30.2 °F 87% 30.24 in 10.0 mi Calm Calm - N/A   Clear
8:35 AM 35.6 °F - 33.8 °F 93% 30.25 in 10.0 mi Calm Calm - N/A   Clear
8:55 AM 39.2 °F - 33.8 °F 81% 30.25 in 10.0 mi Calm Calm - N/A   Clear
9:15 AM 41.0 °F - 35.6 °F 81% 30.25 in 10.0 mi Calm Calm - N/A   Clear
9:35 AM 44.6 °F - 35.6 °F 71% 30.25 in 10.0 mi Calm Calm - N/A   Clear
9:55 AM 46.4 °F - 37.4 °F 71% 30.25 in 10.0 mi Calm Calm - N/A   Clear
10:15 AM 50.0 °F - 37.4 °F 62% 30.25 in 10.0 mi Calm Calm - N/A   Clear
10:35 AM 51.8 °F - 35.6 °F 54% 30.23 in 10.0 mi Calm Calm - N/A   Clear
10:55 AM 53.6 °F - 35.6 °F 51% 30.22 in 10.0 mi Calm Calm - N/A   Clear
11:15 AM 55.4 °F - 35.6 °F 47% 30.22 in 10.0 mi WNW 5.8 mph - N/A   Clear
11:35 AM 55.4 °F - 35.6 °F 47% 30.21 in 10.0 mi NNW 3.5 mph - N/A   Clear
11:55 AM 55.4 °F - 35.6 °F 47% 30.20 in 10.0 mi NNW 5.8 mph - N/A   Clear
12:15 PM 57.2 °F - 37.4 °F 48% 30.19 in 10.0 mi NNE 4.6 mph - N/A   Clear
12:35 PM 57.2 °F - 37.4 °F 48% 30.18 in 10.0 mi NW 5.8 mph - N/A   Clear
12:55 PM 59.0 °F - 37.4 °F 45% 30.17 in 10.0 mi NNW 5.8 mph - N/A   Clear
1:35 PM 60.8 °F - 37.4 °F 42% 30.15 in 10.0 mi Calm Calm - N/A   Clear
1:55 PM 60.8 °F - 37.4 °F 42% 30.15 in 10.0 mi West 3.5 mph - N/A   Clear
2:15 PM 60.8 °F - 37.4 °F 42% 30.15 in 10.0 mi Calm Calm - N/A   Clear
2:35 PM 60.8 °F - 37.4 °F 42% 30.14 in 10.0 mi Calm Calm - N/A   Clear
2:55 PM 60.8 °F - 37.4 °F 42% 30.14 in 10.0 mi Calm Calm - N/A   Clear
3:15 PM 60.8 °F - 35.6 °F 39% 30.14 in 10.0 mi West 5.8 mph - N/A   Clear
3:35 PM 60.8 °F - 37.4 °F 42% 30.14 in 10.0 mi Calm Calm - N/A   Clear
3:55 PM 60.8 °F - 37.4 °F 42% 30.13 in 10.0 mi NNW 4.6 mph - N/A   Clear
4:15 PM 59.0 °F - 35.6 °F 42% 30.13 in 10.0 mi North 4.6 mph - N/A   Clear
4:35 PM 57.2 °F - 35.6 °F 44% 30.13 in 10.0 mi NNW 4.6 mph - N/A   Clear
4:55 PM 57.2 °F - 35.6 °F 44% 30.14 in 10.0 mi NNW 4.6 mph - N/A   Clear
5:15 PM 55.4 °F - 33.8 °F 44% 30.14 in 10.0 mi NNW 3.5 mph - N/A   Clear
5:35 PM 48.2 °F - 37.4 °F 66% 30.14 in 10.0 mi Calm Calm - N/A   Clear
5:55 PM 46.4 °F - 37.4 °F 71% 30.14 in 10.0 mi Calm Calm - N/A   Clear
6:15 PM 44.6 °F - 37.4 °F 76% 30.14 in 10.0 mi Calm Calm - N/A   Clear
6:35 PM 46.4 °F - 37.4 °F 71% 30.14 in 10.0 mi Calm Calm - N/A   Clear
6:55 PM 42.8 °F - 35.6 °F 76% 30.14 in 10.0 mi Calm Calm - N/A   Clear
7:15 PM 41.0 °F - 35.6 °F 81% 30.15 in 10.0 mi Calm Calm - N/A   Clear
7:35 PM 39.2 °F - 35.6 °F 87% 30.15 in 10.0 mi Calm Calm - N/A   Clear
7:55 PM 37.4 °F - 33.8 °F 87% 30.15 in 10.0 mi Calm Calm - N/A   Clear
8:15 PM 39.2 °F - 35.6 °F 87% 30.15 in 10.0 mi Calm Calm - N/A   Clear
8:35 PM 37.4 °F - 33.8 °F 87% 30.15 in 10.0 mi Calm Calm - N/A   Clear
8:55 PM 35.6 °F - 33.8 °F 93% 30.15 in 10.0 mi Calm Calm - N/A   Clear
9:15 PM 37.4 °F - 33.8 °F 87% 30.15 in 10.0 mi Calm Calm - N/A   Clear
9:35 PM 37.4 °F - 33.8 °F 87% 30.15 in 10.0 mi Calm Calm - N/A   Clear
9:55 PM 37.4 °F - 33.8 °F 87% 30.15 in 10.0 mi Calm Calm - N/A   Clear
10:15 PM 35.6 °F - 32.0 °F 87% 30.16 in 10.0 mi Calm Calm - N/A   Clear
10:35 PM 35.6 °F - 33.8 °F 93% 30.15 in 10.0 mi Calm Calm - N/A   Clear
10:55 PM 33.8 °F - 32.0 °F 93% 30.15 in 10.0 mi Calm Calm - N/A   Clear
11:15 PM 35.6 °F - 32.0 °F 87% 30.15 in 10.0 mi Calm Calm - N/A   Clear
11:35 PM 33.8 °F - 30.2 °F 87% 30.14 in 10.0 mi Calm Calm - N/A   Clear
11:55 PM 33.8 °F - 30.2 °F 87% 30.14 in 10.0 mi Calm Calm - N/A   Clear